Malta, Idaho
Current Conditions -  °F | °C
As of 5:53 PM on Monday 22 Dec 2014 (Local Time) from KBYI Reporting Station
Clear Clear  
Wind Chill: -4°   Ceiling: Unl
Heat Index:   Visibility: 10mi
Dew Point: -2°   Wind: 23mph
Humidity: 76%   Direction: 290°WNW
Pressure: 30.1"   Gusts: 29mph
Location:  42.31°N, 113.37°W
Report Text: KBYI 230053Z AUTO 29020G25KT 10SM CLR 02/M02 A3010 RMK AO2 PK WND 28031/2356 SLP201 T00221017
Loading
Personal Weather Stations






























Interactive Weather Map New forecast layout! Learn more

10-Day Weather Forecast

Advertisements
Track Severe Weather on mobile